Main page
METAR-TAF:

METAR-TAF

Airports :

Šiauliai International Airport

Šiauliai, Lithuania

latitude: 55-53-38N, longitude: 023-23-42E, elevation: 135 m

Current weather observation

The report was made 19 minutes ago, at 18:50 UTC
Wind 10 kt from the West/Southwest
Temperature -4°C
Humidity 93%
Pressure 1007 hPa
Visibility 10 km or more
no clouds below 1500 m and no cumulonimbus

METAR: EYSA 181850Z 25010KT CAVOK M04/M05 Q1007 R32R/29//95 BLU NOSIG

Time: 21:09 (19:09 UTC)

Forecast

The report was made 2 hours and 4 minutes ago, at 17:05 UTC
Forecast valid from 18 at 18 UTC to 19 at 03 UTC
Wind 10 kt from the West/Southwest
Visibility: 9000 m
Scattered clouds at a height of 2500 ft
Becoming
from 19 at 00 UTC to 19 at 01 UTC
Broken clouds at a height of 3000 ft

TAF: EYSA 181705Z 1818/1903 25010KT 9000 SCT025 BECMG 1900/1901 BKN030

Weather observations and forecasts of more than 4000 airports (METAR and TAF reports).

The available stations are represented by yellow and red dots on the map.

Hover mouse over dot to see the name of the station.

Then click to see weather observations and forecasts.

To change the map : click on the green buttons with a black cross to zoom in, on the green button with a dash to zoom out, or on the green arrows for adjacent maps.


METAR-TAF: